sensor_id;sensor_type;location;lat;lon;timestamp;P1;durP1;ratioP1;P2;durP2;ratioP2
13218;SDS011;6674;49.152;11.918;2022-12-29T00:01:57;8.13;;;7.23;;
13218;SDS011;6674;49.152;11.918;2022-12-29T00:04:25;8.77;;;7.50;;
13218;SDS011;6674;49.152;11.918;2022-12-29T00:06:52;8.63;;;7.50;;
13218;SDS011;6674;49.152;11.918;2022-12-29T00:09:19;7.50;;;6.80;;
13218;SDS011;6674;49.152;11.918;2022-12-29T00:11:46;7.93;;;7.00;;
13218;SDS011;6674;49.152;11.918;2022-12-29T00:14:12;7.97;;;7.20;;
13218;SDS011;6674;49.152;11.918;2022-12-29T00:16:57;8.07;;;7.27;;
13218;SDS011;6674;49.152;11.918;2022-12-29T00:19:23;8.07;;;7.27;;
13218;SDS011;6674;49.152;11.918;2022-12-29T00:22:09;7.97;;;7.27;;
13218;SDS011;6674;49.152;11.918;2022-12-29T00:24:54;7.47;;;6.77;;
13218;SDS011;6674;49.152;11.918;2022-12-29T00:27:39;7.77;;;7.07;;
13218;SDS011;6674;49.152;11.918;2022-12-29T00:30:23;7.87;;;7.07;;
13218;SDS011;6674;49.152;11.918;2022-12-29T00:33:09;9.17;;;6.90;;
13218;SDS011;6674;49.152;11.918;2022-12-29T00:35:53;8.30;;;7.50;;
13218;SDS011;6674;49.152;11.918;2022-12-29T00:38:25;8.30;;;7.50;;
13218;SDS011;6674;49.152;11.918;2022-12-29T00:41:10;7.20;;;6.50;;
13218;SDS011;6674;49.152;11.918;2022-12-29T00:43:54;7.63;;;6.87;;
13218;SDS011;6674;49.152;11.918;2022-12-29T00:46:35;8.23;;;7.43;;
13218;SDS011;6674;49.152;11.918;2022-12-29T00:49:03;8.27;;;7.47;;
13218;SDS011;6674;49.152;11.918;2022-12-29T00:51:53;7.77;;;6.97;;
13218;SDS011;6674;49.152;11.918;2022-12-29T00:54:22;8.20;;;7.40;;
13218;SDS011;6674;49.152;11.918;2022-12-29T00:56:49;7.90;;;7.10;;
13218;SDS011;6674;49.152;11.918;2022-12-29T00:59:17;7.80;;;7.03;;
13218;SDS011;6674;49.152;11.918;2022-12-29T01:01:44;6.93;;;6.30;;
13218;SDS011;6674;49.152;11.918;2022-12-29T01:04:11;6.80;;;6.10;;
13218;SDS011;6674;49.152;11.918;2022-12-29T01:06:39;6.67;;;6.07;;
13218;SDS011;6674;49.152;11.918;2022-12-29T01:09:06;6.97;;;6.27;;
13218;SDS011;6674;49.152;11.918;2022-12-29T01:11:52;6.27;;;5.67;;
13218;SDS011;6674;49.152;11.918;2022-12-29T01:14:19;7.07;;;6.37;;
13218;SDS011;6674;49.152;11.918;2022-12-29T01:16:47;6.60;;;6.00;;
13218;SDS011;6674;49.152;11.918;2022-12-29T01:19:14;6.87;;;6.17;;
13218;SDS011;6674;49.152;11.918;2022-12-29T01:21:42;6.70;;;6.10;;
13218;SDS011;6674;49.152;11.918;2022-12-29T01:24:08;6.63;;;6.03;;
13218;SDS011;6674;49.152;11.918;2022-12-29T01:26:35;7.70;;;6.43;;
13218;SDS011;6674;49.152;11.918;2022-12-29T01:29:03;6.47;;;5.87;;
13218;SDS011;6674;49.152;11.918;2022-12-29T01:31:30;7.03;;;6.33;;
13218;SDS011;6674;49.152;11.918;2022-12-29T01:33:56;7.30;;;6.53;;
13218;SDS011;6674;49.152;11.918;2022-12-29T01:36:23;6.67;;;5.97;;
13218;SDS011;6674;49.152;11.918;2022-12-29T01:38:50;6.60;;;5.47;;
13218;SDS011;6674;49.152;11.918;2022-12-29T01:41:16;7.27;;;6.40;;
13218;SDS011;6674;49.152;11.918;2022-12-29T01:43:45;6.27;;;5.77;;
13218;SDS011;6674;49.152;11.918;2022-12-29T01:46:22;6.23;;;5.63;;
13218;SDS011;6674;49.152;11.918;2022-12-29T01:48:51;7.13;;;6.27;;
13218;SDS011;6674;49.152;11.918;2022-12-29T01:51:20;6.37;;;5.43;;
13218;SDS011;6674;49.152;11.918;2022-12-29T01:53:49;6.30;;;5.70;;
13218;SDS011;6674;49.152;11.918;2022-12-29T01:56:17;6.90;;;6.20;;
13218;SDS011;6674;49.152;11.918;2022-12-29T01:58:47;6.57;;;5.97;;
13218;SDS011;6674;49.152;11.918;2022-12-29T02:01:16;6.47;;;5.87;;
13218;SDS011;6674;49.152;11.918;2022-12-29T02:03:47;6.63;;;5.93;;
13218;SDS011;6674;49.152;11.918;2022-12-29T02:06:17;7.47;;;6.40;;
13218;SDS011;6674;49.152;11.918;2022-12-29T02:08:47;7.17;;;6.23;;
13218;SDS011;6674;49.152;11.918;2022-12-29T02:11:16;6.40;;;5.80;;
13218;SDS011;6674;49.152;11.918;2022-12-29T02:13:43;6.53;;;5.93;;
13218;SDS011;6674;49.152;11.918;2022-12-29T02:16:14;6.20;;;5.60;;
13218;SDS011;6674;49.152;11.918;2022-12-29T02:18:51;6.03;;;5.43;;
13218;SDS011;6674;49.152;11.918;2022-12-29T02:30:39;8.00;;;6.43;;
13218;SDS011;6674;49.152;11.918;2022-12-29T02:33:13;6.40;;;5.80;;
13218;SDS011;6674;49.152;11.918;2022-12-29T02:35:48;7.20;;;6.50;;
13218;SDS011;6674;49.152;11.918;2022-12-29T02:38:25;5.90;;;5.30;;
13218;SDS011;6674;49.152;11.918;2022-12-29T02:41:03;6.00;;;5.37;;
13218;SDS011;6674;49.152;11.918;2022-12-29T02:43:36;6.03;;;5.43;;
13218;SDS011;6674;49.152;11.918;2022-12-29T02:46:11;6.03;;;5.43;;
13218;SDS011;6674;49.152;11.918;2022-12-29T02:48:42;6.53;;;5.93;;
13218;SDS011;6674;49.152;11.918;2022-12-29T02:51:12;7.00;;;6.30;;
13218;SDS011;6674;49.152;11.918;2022-12-29T02:53:44;5.87;;;5.30;;
13218;SDS011;6674;49.152;11.918;2022-12-29T02:56:29;6.10;;;5.50;;
13218;SDS011;6674;49.152;11.918;2022-12-29T02:58:56;6.40;;;5.80;;
13218;SDS011;6674;49.152;11.918;2022-12-29T03:01:27;5.93;;;5.33;;
13218;SDS011;6674;49.152;11.918;2022-12-29T03:04:04;6.13;;;5.53;;
13218;SDS011;6674;49.152;11.918;2022-12-29T03:06:48;7.73;;;5.80;;
13218;SDS011;6674;49.152;11.918;2022-12-29T03:09:21;6.27;;;5.53;;
13218;SDS011;6674;49.152;11.918;2022-12-29T03:11:59;5.20;;;4.70;;
13218;SDS011;6674;49.152;11.918;2022-12-29T03:14:36;5.47;;;4.97;;
13218;SDS011;6674;49.152;11.918;2022-12-29T03:17:26;5.90;;;5.17;;
13218;SDS011;6674;49.152;11.918;2022-12-29T03:19:57;5.23;;;4.73;;
13218;SDS011;6674;49.152;11.918;2022-12-29T03:22:28;5.90;;;5.30;;
13218;SDS011;6674;49.152;11.918;2022-12-29T03:24:59;5.63;;;5.03;;
13218;SDS011;6674;49.152;11.918;2022-12-29T03:27:31;5.47;;;4.97;;
13218;SDS011;6674;49.152;11.918;2022-12-29T03:30:01;5.30;;;4.80;;
13218;SDS011;6674;49.152;11.918;2022-12-29T03:32:33;6.60;;;5.63;;
13218;SDS011;6674;49.152;11.918;2022-12-29T03:35:04;5.47;;;4.97;;
13218;SDS011;6674;49.152;11.918;2022-12-29T03:37:34;5.30;;;4.80;;
13218;SDS011;6674;49.152;11.918;2022-12-29T03:40:05;5.47;;;4.97;;
13218;SDS011;6674;49.152;11.918;2022-12-29T03:42:34;5.40;;;4.90;;
13218;SDS011;6674;49.152;11.918;2022-12-29T03:45:03;5.50;;;5.00;;
13218;SDS011;6674;49.152;11.918;2022-12-29T03:47:32;5.07;;;4.57;;
13218;SDS011;6674;49.152;11.918;2022-12-29T03:49:59;5.30;;;4.80;;
13218;SDS011;6674;49.152;11.918;2022-12-29T03:52:25;5.40;;;4.90;;
13218;SDS011;6674;49.152;11.918;2022-12-29T03:54:52;5.53;;;5.03;;
13218;SDS011;6674;49.152;11.918;2022-12-29T03:57:18;5.77;;;4.80;;
13218;SDS011;6674;49.152;11.918;2022-12-29T03:59:45;5.00;;;4.50;;
13218;SDS011;6674;49.152;11.918;2022-12-29T04:02:11;5.00;;;4.50;;
13218;SDS011;6674;49.152;11.918;2022-12-29T04:04:40;5.00;;;4.60;;
13218;SDS011;6674;49.152;11.918;2022-12-29T04:07:06;5.43;;;4.87;;
13218;SDS011;6674;49.152;11.918;2022-12-29T04:09:33;5.33;;;4.83;;
13218;SDS011;6674;49.152;11.918;2022-12-29T04:11:59;7.20;;;4.97;;
13218;SDS011;6674;49.152;11.918;2022-12-29T04:14:26;5.57;;;4.90;;
13218;SDS011;6674;49.152;11.918;2022-12-29T04:16:52;5.20;;;4.57;;
13218;SDS011;6674;49.152;11.918;2022-12-29T04:19:19;5.40;;;4.83;;
13218;SDS011;6674;49.152;11.918;2022-12-29T04:21:47;4.83;;;4.30;;
13218;SDS011;6674;49.152;11.918;2022-12-29T04:24:14;5.00;;;4.50;;
13218;SDS011;6674;49.152;11.918;2022-12-29T04:26:40;5.37;;;4.67;;
13218;SDS011;6674;49.152;11.918;2022-12-29T04:29:07;4.83;;;4.33;;
13218;SDS011;6674;49.152;11.918;2022-12-29T04:31:33;5.20;;;4.70;;
13218;SDS011;6674;49.152;11.918;2022-12-29T04:34:00;5.33;;;4.53;;
13218;SDS011;6674;49.152;11.918;2022-12-29T04:36:27;5.23;;;4.73;;
13218;SDS011;6674;49.152;11.918;2022-12-29T04:38:55;5.20;;;4.70;;
13218;SDS011;6674;49.152;11.918;2022-12-29T04:41:22;4.67;;;4.27;;
13218;SDS011;6674;49.152;11.918;2022-12-29T04:43:48;8.13;;;5.13;;
13218;SDS011;6674;49.152;11.918;2022-12-29T04:46:15;5.07;;;4.57;;
13218;SDS011;6674;49.152;11.918;2022-12-29T04:48:42;5.53;;;5.03;;
13218;SDS011;6674;49.152;11.918;2022-12-29T04:51:09;4.87;;;4.47;;
13218;SDS011;6674;49.152;11.918;2022-12-29T04:53:36;5.63;;;5.07;;
13218;SDS011;6674;49.152;11.918;2022-12-29T04:56:04;5.80;;;5.20;;
13218;SDS011;6674;49.152;11.918;2022-12-29T04:58:31;5.90;;;5.40;;
13218;SDS011;6674;49.152;11.918;2022-12-29T05:00:57;5.87;;;5.30;;
13218;SDS011;6674;49.152;11.918;2022-12-29T05:03:24;5.70;;;5.20;;
13218;SDS011;6674;49.152;11.918;2022-12-29T05:05:52;6.20;;;5.60;;
13218;SDS011;6674;49.152;11.918;2022-12-29T05:08:19;6.03;;;5.43;;
13218;SDS011;6674;49.152;11.918;2022-12-29T05:10:46;5.83;;;5.33;;
13218;SDS011;6674;49.152;11.918;2022-12-29T05:13:14;5.70;;;5.20;;
13218;SDS011;6674;49.152;11.918;2022-12-29T05:15:40;5.97;;;5.47;;
13218;SDS011;6674;49.152;11.918;2022-12-29T05:18:07;5.90;;;5.40;;
13218;SDS011;6674;49.152;11.918;2022-12-29T05:20:33;5.63;;;5.13;;
13218;SDS011;6674;49.152;11.918;2022-12-29T05:23:00;5.87;;;5.20;;
13218;SDS011;6674;49.152;11.918;2022-12-29T05:25:27;5.80;;;5.30;;
13218;SDS011;6674;49.152;11.918;2022-12-29T05:27:53;5.77;;;5.10;;
13218;SDS011;6674;49.152;11.918;2022-12-29T05:30:21;6.67;;;5.97;;
13218;SDS011;6674;49.152;11.918;2022-12-29T05:32:48;5.63;;;5.13;;
13218;SDS011;6674;49.152;11.918;2022-12-29T05:35:14;6.27;;;5.67;;
13218;SDS011;6674;49.152;11.918;2022-12-29T05:37:41;6.40;;;5.80;;
13218;SDS011;6674;49.152;11.918;2022-12-29T05:40:07;5.80;;;5.20;;
13218;SDS011;6674;49.152;11.918;2022-12-29T05:42:34;6.60;;;5.90;;
13218;SDS011;6674;49.152;11.918;2022-12-29T05:45:01;5.83;;;5.10;;
13218;SDS011;6674;49.152;11.918;2022-12-29T05:47:29;6.90;;;6.30;;
13218;SDS011;6674;49.152;11.918;2022-12-29T05:49:56;6.33;;;5.73;;
13218;SDS011;6674;49.152;11.918;2022-12-29T05:52:22;5.63;;;5.00;;
13218;SDS011;6674;49.152;11.918;2022-12-29T05:54:49;6.07;;;5.43;;
13218;SDS011;6674;49.152;11.918;2022-12-29T05:57:16;5.37;;;4.87;;
13218;SDS011;6674;49.152;11.918;2022-12-29T05:59:42;6.05;;;5.45;;
13218;SDS011;6674;49.152;11.918;2022-12-29T06:02:09;5.43;;;5.00;;
13218;SDS011;6674;49.152;11.918;2022-12-29T06:04:37;5.20;;;4.70;;
13218;SDS011;6674;49.152;11.918;2022-12-29T06:07:04;5.60;;;5.00;;
13218;SDS011;6674;49.152;11.918;2022-12-29T06:09:30;5.30;;;4.80;;
13218;SDS011;6674;49.152;11.918;2022-12-29T06:11:57;5.87;;;5.00;;
13218;SDS011;6674;49.152;11.918;2022-12-29T06:14:23;4.97;;;4.43;;
13218;SDS011;6674;49.152;11.918;2022-12-29T06:16:50;5.27;;;4.50;;
13218;SDS011;6674;49.152;11.918;2022-12-29T06:19:16;5.23;;;4.73;;
13218;SDS011;6674;49.152;11.918;2022-12-29T06:21:44;4.93;;;4.53;;
13218;SDS011;6674;49.152;11.918;2022-12-29T06:24:11;5.00;;;4.60;;
13218;SDS011;6674;49.152;11.918;2022-12-29T06:26:37;5.37;;;4.87;;
13218;SDS011;6674;49.152;11.918;2022-12-29T06:29:05;5.93;;;5.43;;
13218;SDS011;6674;49.152;11.918;2022-12-29T06:31:32;5.70;;;5.20;;
13218;SDS011;6674;49.152;11.918;2022-12-29T06:33:58;5.00;;;4.40;;
13218;SDS011;6674;49.152;11.918;2022-12-29T06:36:25;5.20;;;4.60;;
13218;SDS011;6674;49.152;11.918;2022-12-29T06:38:53;5.77;;;5.20;;
13218;SDS011;6674;49.152;11.918;2022-12-29T06:41:20;5.20;;;4.70;;
13218;SDS011;6674;49.152;11.918;2022-12-29T06:43:47;6.13;;;5.47;;
13218;SDS011;6674;49.152;11.918;2022-12-29T06:46:13;5.47;;;4.97;;
13218;SDS011;6674;49.152;11.918;2022-12-29T06:48:40;5.73;;;5.20;;
13218;SDS011;6674;49.152;11.918;2022-12-29T06:51:07;5.37;;;4.87;;
13218;SDS011;6674;49.152;11.918;2022-12-29T06:53:34;6.43;;;4.97;;
13218;SDS011;6674;49.152;11.918;2022-12-29T06:56:02;5.50;;;5.00;;
13218;SDS011;6674;49.152;11.918;2022-12-29T06:58:28;5.13;;;4.63;;
13218;SDS011;6674;49.152;11.918;2022-12-29T07:00:55;4.97;;;4.57;;
13218;SDS011;6674;49.152;11.918;2022-12-29T07:03:22;5.33;;;4.83;;
13218;SDS011;6674;49.152;11.918;2022-12-29T07:05:48;5.63;;;5.13;;
13218;SDS011;6674;49.152;11.918;2022-12-29T07:08:15;5.70;;;4.80;;
13218;SDS011;6674;49.152;11.918;2022-12-29T07:10:41;6.27;;;5.67;;
13218;SDS011;6674;49.152;11.918;2022-12-29T07:13:09;5.57;;;5.00;;
13218;SDS011;6674;49.152;11.918;2022-12-29T07:15:36;6.20;;;5.07;;
13218;SDS011;6674;49.152;11.918;2022-12-29T07:18:03;5.57;;;5.07;;
13218;SDS011;6674;49.152;11.918;2022-12-29T07:20:29;5.40;;;4.90;;
13218;SDS011;6674;49.152;11.918;2022-12-29T07:22:56;5.50;;;5.00;;
13218;SDS011;6674;49.152;11.918;2022-12-29T07:25:22;5.80;;;5.20;;
13218;SDS011;6674;49.152;11.918;2022-12-29T07:27:49;5.20;;;4.70;;
13218;SDS011;6674;49.152;11.918;2022-12-29T07:30:17;5.80;;;5.30;;
13218;SDS011;6674;49.152;11.918;2022-12-29T07:32:44;5.20;;;4.70;;
13218;SDS011;6674;49.152;11.918;2022-12-29T07:35:11;5.60;;;5.10;;
13218;SDS011;6674;49.152;11.918;2022-12-29T07:37:37;4.87;;;4.47;;
13218;SDS011;6674;49.152;11.918;2022-12-29T07:40:04;5.20;;;4.70;;
13218;SDS011;6674;49.152;11.918;2022-12-29T07:42:32;5.03;;;4.53;;
13218;SDS011;6674;49.152;11.918;2022-12-29T07:44:58;5.17;;;4.63;;
13218;SDS011;6674;49.152;11.918;2022-12-29T07:47:26;5.00;;;4.60;;
13218;SDS011;6674;49.152;11.918;2022-12-29T07:49:53;4.30;;;3.90;;
13218;SDS011;6674;49.152;11.918;2022-12-29T07:52:19;4.70;;;4.30;;
13218;SDS011;6674;49.152;11.918;2022-12-29T07:54:46;5.30;;;4.80;;
13218;SDS011;6674;49.152;11.918;2022-12-29T07:57:12;5.73;;;4.63;;
13218;SDS011;6674;49.152;11.918;2022-12-29T07:59:39;4.47;;;3.83;;
13218;SDS011;6674;49.152;11.918;2022-12-29T08:02:05;6.60;;;4.30;;
13218;SDS011;6674;49.152;11.918;2022-12-29T08:04:36;5.23;;;4.40;;
13218;SDS011;6674;49.152;11.918;2022-12-29T08:07:03;4.90;;;4.50;;
13218;SDS011;6674;49.152;11.918;2022-12-29T08:09:30;4.67;;;4.27;;
13218;SDS011;6674;49.152;11.918;2022-12-29T08:11:57;5.83;;;4.33;;
13218;SDS011;6674;49.152;11.918;2022-12-29T08:14:23;4.53;;;4.13;;
13218;SDS011;6674;49.152;11.918;2022-12-29T08:16:50;5.60;;;4.37;;
13218;SDS011;6674;49.152;11.918;2022-12-29T08:19:16;4.50;;;4.10;;
13218;SDS011;6674;49.152;11.918;2022-12-29T08:21:44;4.33;;;4.00;;
13218;SDS011;6674;49.152;11.918;2022-12-29T08:24:11;4.83;;;4.33;;
13218;SDS011;6674;49.152;11.918;2022-12-29T08:26:38;5.00;;;4.10;;
13218;SDS011;6674;49.152;11.918;2022-12-29T08:29:04;4.63;;;4.17;;
13218;SDS011;6674;49.152;11.918;2022-12-29T08:31:31;4.63;;;4.00;;
13218;SDS011;6674;49.152;11.918;2022-12-29T08:33:57;4.60;;;4.20;;
13218;SDS011;6674;49.152;11.918;2022-12-29T08:36:25;4.40;;;4.00;;
13218;SDS011;6674;49.152;11.918;2022-12-29T08:38:53;4.43;;;4.00;;
13218;SDS011;6674;49.152;11.918;2022-12-29T08:41:19;5.83;;;4.60;;
13218;SDS011;6674;49.152;11.918;2022-12-29T08:43:46;5.30;;;4.40;;
13218;SDS011;6674;49.152;11.918;2022-12-29T08:46:13;4.47;;;3.80;;
13218;SDS011;6674;49.152;11.918;2022-12-29T08:48:39;5.10;;;4.60;;
13218;SDS011;6674;49.152;11.918;2022-12-29T08:51:06;5.00;;;4.50;;
13218;SDS011;6674;49.152;11.918;2022-12-29T08:53:33;4.70;;;4.20;;
13218;SDS011;6674;49.152;11.918;2022-12-29T08:56:02;4.53;;;4.13;;
13218;SDS011;6674;49.152;11.918;2022-12-29T08:58:29;4.67;;;4.07;;
13218;SDS011;6674;49.152;11.918;2022-12-29T09:00:56;4.53;;;4.13;;
13218;SDS011;6674;49.152;11.918;2022-12-29T09:03:24;4.90;;;4.23;;
13218;SDS011;6674;49.152;11.918;2022-12-29T09:05:51;4.97;;;4.47;;
13218;SDS011;6674;49.152;11.918;2022-12-29T09:08:19;4.43;;;4.03;;
13218;SDS011;6674;49.152;11.918;2022-12-29T09:10:46;4.40;;;4.00;;
13218;SDS011;6674;49.152;11.918;2022-12-29T09:13:15;4.33;;;3.77;;
13218;SDS011;6674;49.152;11.918;2022-12-29T09:15:42;4.37;;;3.47;;
13218;SDS011;6674;49.152;11.918;2022-12-29T09:18:09;3.80;;;3.50;;
13218;SDS011;6674;49.152;11.918;2022-12-29T09:20:37;4.03;;;3.63;;
13218;SDS011;6674;49.152;11.918;2022-12-29T09:23:04;3.97;;;3.60;;
13218;SDS011;6674;49.152;11.918;2022-12-29T09:25:31;5.03;;;4.17;;
13218;SDS011;6674;49.152;11.918;2022-12-29T09:27:58;4.13;;;3.50;;
13218;SDS011;6674;49.152;11.918;2022-12-29T09:30:25;4.00;;;3.60;;
13218;SDS011;6674;49.152;11.918;2022-12-29T09:32:52;3.77;;;3.47;;
13218;SDS011;6674;49.152;11.918;2022-12-29T09:35:18;4.50;;;3.73;;
13218;SDS011;6674;49.152;11.918;2022-12-29T09:37:45;4.03;;;3.63;;
13218;SDS011;6674;49.152;11.918;2022-12-29T09:40:17;3.90;;;3.57;;
13218;SDS011;6674;49.152;11.918;2022-12-29T09:42:53;4.00;;;3.30;;
13218;SDS011;6674;49.152;11.918;2022-12-29T09:45:30;3.87;;;3.57;;
13218;SDS011;6674;49.152;11.918;2022-12-29T09:48:03;4.33;;;3.57;;
13218;SDS011;6674;49.152;11.918;2022-12-29T09:50:31;4.17;;;3.57;;
13218;SDS011;6674;49.152;11.918;2022-12-29T09:53:01;6.20;;;4.00;;
13218;SDS011;6674;49.152;11.918;2022-12-29T09:55:33;4.67;;;3.47;;
13218;SDS011;6674;49.152;11.918;2022-12-29T09:58:05;3.60;;;3.30;;
13218;SDS011;6674;49.152;11.918;2022-12-29T10:00:39;3.60;;;3.20;;
13218;SDS011;6674;49.152;11.918;2022-12-29T10:03:14;4.10;;;3.47;;
13218;SDS011;6674;49.152;11.918;2022-12-29T10:05:44;3.60;;;3.30;;
13218;SDS011;6674;49.152;11.918;2022-12-29T10:08:26;3.67;;;3.30;;
13218;SDS011;6674;49.152;11.918;2022-12-29T10:11:03;4.00;;;3.17;;
13218;SDS011;6674;49.152;11.918;2022-12-29T10:13:40;4.17;;;3.30;;
13218;SDS011;6674;49.152;11.918;2022-12-29T10:16:17;3.93;;;3.43;;
13218;SDS011;6674;49.152;11.918;2022-12-29T10:18:52;4.23;;;3.40;;
13218;SDS011;6674;49.152;11.918;2022-12-29T10:21:30;3.57;;;3.27;;
13218;SDS011;6674;49.152;11.918;2022-12-29T10:24:04;5.03;;;3.00;;
13218;SDS011;6674;49.152;11.918;2022-12-29T10:26:37;3.57;;;3.27;;
13218;SDS011;6674;49.152;11.918;2022-12-29T10:29:06;3.80;;;3.10;;
13218;SDS011;6674;49.152;11.918;2022-12-29T10:31:43;4.67;;;3.40;;
13218;SDS011;6674;49.152;11.918;2022-12-29T10:34:15;3.40;;;3.10;;
13218;SDS011;6674;49.152;11.918;2022-12-29T10:36:46;3.53;;;3.23;;
13218;SDS011;6674;49.152;11.918;2022-12-29T10:39:16;3.57;;;3.27;;
13218;SDS011;6674;49.152;11.918;2022-12-29T10:41:48;4.70;;;3.37;;
13218;SDS011;6674;49.152;11.918;2022-12-29T10:44:17;3.57;;;3.27;;
13218;SDS011;6674;49.152;11.918;2022-12-29T10:46:54;4.10;;;3.37;;
13218;SDS011;6674;49.152;11.918;2022-12-29T10:49:23;3.70;;;3.00;;
13218;SDS011;6674;49.152;11.918;2022-12-29T10:51:52;4.67;;;3.13;;
13218;SDS011;6674;49.152;11.918;2022-12-29T10:54:24;5.40;;;3.00;;
13218;SDS011;6674;49.152;11.918;2022-12-29T10:56:54;4.53;;;3.20;;
13218;SDS011;6674;49.152;11.918;2022-12-29T10:59:27;2.97;;;2.70;;
13218;SDS011;6674;49.152;11.918;2022-12-29T11:01:58;3.13;;;2.83;;
13218;SDS011;6674;49.152;11.918;2022-12-29T11:04:33;2.80;;;2.50;;
13218;SDS011;6674;49.152;11.918;2022-12-29T11:07:09;2.60;;;2.40;;
13218;SDS011;6674;49.152;11.918;2022-12-29T11:09:37;2.70;;;2.30;;
13218;SDS011;6674;49.152;11.918;2022-12-29T11:12:18;2.97;;;2.23;;
13218;SDS011;6674;49.152;11.918;2022-12-29T11:14:59;2.13;;;1.93;;
13218;SDS011;6674;49.152;11.918;2022-12-29T11:17:29;3.80;;;2.17;;
13218;SDS011;6674;49.152;11.918;2022-12-29T11:19:56;3.93;;;2.03;;
13218;SDS011;6674;49.152;11.918;2022-12-29T11:22:23;4.00;;;2.23;;
13218;SDS011;6674;49.152;11.918;2022-12-29T11:24:52;3.13;;;2.23;;
13218;SDS011;6674;49.152;11.918;2022-12-29T11:27:20;3.17;;;2.20;;
13218;SDS011;6674;49.152;11.918;2022-12-29T11:29:48;3.10;;;1.90;;
13218;SDS011;6674;49.152;11.918;2022-12-29T11:32:18;2.53;;;1.83;;
13218;SDS011;6674;49.152;11.918;2022-12-29T11:34:47;2.60;;;1.70;;
13218;SDS011;6674;49.152;11.918;2022-12-29T11:37:16;2.33;;;2.10;;
13218;SDS011;6674;49.152;11.918;2022-12-29T11:39:46;2.93;;;2.00;;
13218;SDS011;6674;49.152;11.918;2022-12-29T11:42:18;2.57;;;2.33;;
13218;SDS011;6674;49.152;11.918;2022-12-29T11:44:49;2.30;;;2.10;;
13218;SDS011;6674;49.152;11.918;2022-12-29T11:47:22;2.97;;;2.20;;
13218;SDS011;6674;49.152;11.918;2022-12-29T11:49:55;3.07;;;2.10;;
13218;SDS011;6674;49.152;11.918;2022-12-29T11:52:24;4.37;;;2.33;;
13218;SDS011;6674;49.152;11.918;2022-12-29T11:54:53;2.90;;;2.27;;
13218;SDS011;6674;49.152;11.918;2022-12-29T11:57:21;2.60;;;2.30;;
13218;SDS011;6674;49.152;11.918;2022-12-29T11:59:50;3.13;;;2.47;;
13218;SDS011;6674;49.152;11.918;2022-12-29T12:02:30;4.17;;;2.43;;
13218;SDS011;6674;49.152;11.918;2022-12-29T12:05:05;2.53;;;1.83;;
13218;SDS011;6674;49.152;11.918;2022-12-29T12:07:40;2.20;;;2.00;;
13218;SDS011;6674;49.152;11.918;2022-12-29T12:10:12;3.47;;;2.23;;
13218;SDS011;6674;49.152;11.918;2022-12-29T12:12:45;3.83;;;2.30;;
13218;SDS011;6674;49.152;11.918;2022-12-29T12:15:16;2.83;;;2.10;;
13218;SDS011;6674;49.152;11.918;2022-12-29T12:17:50;2.30;;;2.10;;
13218;SDS011;6674;49.152;11.918;2022-12-29T12:20:22;2.40;;;2.20;;
13218;SDS011;6674;49.152;11.918;2022-12-29T12:22:54;3.50;;;2.30;;
13218;SDS011;6674;49.152;11.918;2022-12-29T12:25:29;2.80;;;2.07;;
13218;SDS011;6674;49.152;11.918;2022-12-29T12:28:01;3.27;;;1.93;;
13218;SDS011;6674;49.152;11.918;2022-12-29T12:30:35;2.80;;;2.07;;
13218;SDS011;6674;49.152;11.918;2022-12-29T12:33:10;2.77;;;1.90;;
13218;SDS011;6674;49.152;11.918;2022-12-29T12:35:46;3.17;;;2.20;;
13218;SDS011;6674;49.152;11.918;2022-12-29T12:38:25;3.90;;;2.27;;
13218;SDS011;6674;49.152;11.918;2022-12-29T12:41:05;2.17;;;1.80;;
13218;SDS011;6674;49.152;11.918;2022-12-29T12:43:40;2.47;;;2.03;;
13218;SDS011;6674;49.152;11.918;2022-12-29T12:46:14;2.17;;;1.97;;
13218;SDS011;6674;49.152;11.918;2022-12-29T12:49:00;2.87;;;1.83;;
13218;SDS011;6674;49.152;11.918;2022-12-29T12:51:42;3.57;;;2.03;;
13218;SDS011;6674;49.152;11.918;2022-12-29T12:54:23;3.03;;;1.90;;
13218;SDS011;6674;49.152;11.918;2022-12-29T12:57:02;4.37;;;2.60;;
13218;SDS011;6674;49.152;11.918;2022-12-29T12:59:44;2.83;;;1.70;;
13218;SDS011;6674;49.152;11.918;2022-12-29T13:02:21;2.40;;;2.00;;
13218;SDS011;6674;49.152;11.918;2022-12-29T13:05:07;4.17;;;2.13;;
13218;SDS011;6674;49.152;11.918;2022-12-29T13:07:47;1.63;;;1.53;;
13218;SDS011;6674;49.152;11.918;2022-12-29T13:10:29;2.50;;;1.80;;
13218;SDS011;6674;49.152;11.918;2022-12-29T13:15:57;1.80;;;1.70;;
13218;SDS011;6674;49.152;11.918;2022-12-29T13:18:33;2.20;;;1.80;;
13218;SDS011;6674;49.152;11.918;2022-12-29T13:21:10;1.70;;;1.60;;
13218;SDS011;6674;49.152;11.918;2022-12-29T13:23:48;2.83;;;1.70;;
13218;SDS011;6674;49.152;11.918;2022-12-29T13:26:22;2.53;;;2.00;;
13218;SDS011;6674;49.152;11.918;2022-12-29T13:28:53;2.53;;;2.07;;
13218;SDS011;6674;49.152;11.918;2022-12-29T13:31:27;3.13;;;1.93;;
13218;SDS011;6674;49.152;11.918;2022-12-29T13:34:04;3.03;;;2.03;;
13218;SDS011;6674;49.152;11.918;2022-12-29T13:36:42;3.70;;;2.37;;
13218;SDS011;6674;49.152;11.918;2022-12-29T13:39:14;4.47;;;1.83;;
13218;SDS011;6674;49.152;11.918;2022-12-29T13:41:45;2.47;;;2.20;;
13218;SDS011;6674;49.152;11.918;2022-12-29T13:44:17;3.53;;;2.10;;
13218;SDS011;6674;49.152;11.918;2022-12-29T13:46:47;2.57;;;1.90;;
13218;SDS011;6674;49.152;11.918;2022-12-29T13:49:17;2.40;;;1.80;;
13218;SDS011;6674;49.152;11.918;2022-12-29T13:51:47;2.10;;;1.80;;
13218;SDS011;6674;49.152;11.918;2022-12-29T13:54:24;2.80;;;1.67;;
13218;SDS011;6674;49.152;11.918;2022-12-29T13:57:02;1.83;;;1.63;;
13218;SDS011;6674;49.152;11.918;2022-12-29T13:59:36;2.83;;;1.60;;
13218;SDS011;6674;49.152;11.918;2022-12-29T14:02:16;2.47;;;2.10;;
13218;SDS011;6674;49.152;11.918;2022-12-29T14:04:57;4.47;;;1.70;;
13218;SDS011;6674;49.152;11.918;2022-12-29T14:07:26;2.57;;;1.53;;
13218;SDS011;6674;49.152;11.918;2022-12-29T14:09:55;3.67;;;1.70;;
13218;SDS011;6674;49.152;11.918;2022-12-29T14:12:33;3.90;;;2.03;;
13218;SDS011;6674;49.152;11.918;2022-12-29T14:15:06;2.87;;;1.70;;
13218;SDS011;6674;49.152;11.918;2022-12-29T14:17:42;2.83;;;1.63;;
13218;SDS011;6674;49.152;11.918;2022-12-29T14:20:16;1.80;;;1.30;;
13218;SDS011;6674;49.152;11.918;2022-12-29T14:22:55;2.47;;;1.90;;
13218;SDS011;6674;49.152;11.918;2022-12-29T14:28:37;2.13;;;1.40;;
13218;SDS011;6674;49.152;11.918;2022-12-29T14:31:04;2.50;;;1.70;;
13218;SDS011;6674;49.152;11.918;2022-12-29T14:33:32;2.10;;;1.80;;
13218;SDS011;6674;49.152;11.918;2022-12-29T14:38:46;1.60;;;1.47;;
13218;SDS011;6674;49.152;11.918;2022-12-29T14:41:23;2.37;;;1.50;;
13218;SDS011;6674;49.152;11.918;2022-12-29T14:43:54;1.50;;;1.40;;
13218;SDS011;6674;49.152;11.918;2022-12-29T14:46:23;1.93;;;1.63;;
13218;SDS011;6674;49.152;11.918;2022-12-29T14:48:54;2.40;;;1.80;;
13218;SDS011;6674;49.152;11.918;2022-12-29T14:51:28;2.27;;;1.43;;
13218;SDS011;6674;49.152;11.918;2022-12-29T14:53:57;2.50;;;1.83;;
13218;SDS011;6674;49.152;11.918;2022-12-29T14:56:27;2.27;;;1.50;;
13218;SDS011;6674;49.152;11.918;2022-12-29T14:58:56;2.20;;;1.67;;
13218;SDS011;6674;49.152;11.918;2022-12-29T15:01:27;2.00;;;1.60;;
13218;SDS011;6674;49.152;11.918;2022-12-29T15:04:04;1.60;;;1.50;;
13218;SDS011;6674;49.152;11.918;2022-12-29T15:06:39;2.00;;;1.73;;
13218;SDS011;6674;49.152;11.918;2022-12-29T15:09:10;2.37;;;1.70;;
13218;SDS011;6674;49.152;11.918;2022-12-29T15:11:49;1.77;;;1.53;;
13218;SDS011;6674;49.152;11.918;2022-12-29T15:14:28;3.20;;;1.80;;
13218;SDS011;6674;49.152;11.918;2022-12-29T15:16:57;3.10;;;1.97;;
13218;SDS011;6674;49.152;11.918;2022-12-29T15:19:24;2.20;;;1.87;;
13218;SDS011;6674;49.152;11.918;2022-12-29T15:21:52;2.77;;;1.80;;
13218;SDS011;6674;49.152;11.918;2022-12-29T15:24:20;3.20;;;1.60;;
13218;SDS011;6674;49.152;11.918;2022-12-29T15:26:48;2.97;;;1.93;;